Time;durP1;ratioP1;P1;durP2;ratioP2;P2;SDS_P1;SDS_P2;PMS_P1;PMS_P2;Temp;Humidity;BMP_temperature;BMP_pressure;BME280_temperature;BME280_humidity;BME280_pressure;Samples;Min_cycle;Max_cycle;Signal;HPM_P1;HPM_P2
2021/09/10 00:00:35;;;;;;;;;;;;;;;15.17;80.54;99459.56;4973736;28;19926;-89
2021/09/10 00:03:02;;;;;;;;;;;;;;;15.16;80.63;99459.88;4974021;28;19932;-87
2021/09/10 00:05:27;;;;;;;;;;;;;;;15.16;80.76;99463.44;4973977;28;19969;-88
2021/09/10 00:07:53;;;;;;;;;;;;;;;15.15;80.72;99453.59;4973784;28;19965;-88
2021/09/10 00:10:19;;;;;;;;;;;;;;;15.15;80.72;99453.59;4973392;28;19933;-91
2021/09/10 00:12:45;;;;;;;;;;;;;;;15.13;80.87;99455.88;4973784;28;20356;-91
2021/09/10 00:15:11;;;;;;;;;;;;;;;15.17;80.86;99445.81;4956367;28;20045;-88
2021/09/10 00:17:37;;;;;;;;;;;;;;;15.16;80.84;99446.94;4973746;28;19926;-87
2021/09/10 00:20:04;;;;;;;;;;;;;;;15.15;80.79;99456.34;4973442;28;20327;-87
2021/09/10 00:22:29;;;;;;;;;;;;;;;15.15;80.87;99450.03;4973487;28;19926;-88
2021/09/10 00:24:57;;;;;;;;;;;;;;;15.15;80.87;99450.84;4940377;28;19933;-92
2021/09/10 00:27:23;;;;;;;;;;;;;;;15.13;80.97;99447.63;4973586;28;20400;-87
2021/09/10 00:29:49;;;;;;;;;;;;;;;15.15;80.90;99453.59;4956276;28;20343;-88
2021/09/10 00:32:14;;;;;;;;;;;;;;;15.16;80.79;99457.13;4955661;28;20013;-87
2021/09/10 00:34:41;;;;;;;;;;;;;;;15.15;81.00;99450.84;4972093;28;19949;-87
2021/09/10 00:37:07;;;;;;;;;;;;;;;15.15;80.97;99450.84;4972230;28;20403;-88
2021/09/10 00:39:33;;;;;;;;;;;;;;;15.15;80.96;99442.56;4973362;28;20441;-87
2021/09/10 00:41:59;;;;;;;;;;;;;;;15.19;80.66;99446.25;4973124;28;19926;-87
2021/09/10 00:44:26;;;;;;;;;;;;;;;15.20;80.66;99458.09;4955847;28;20310;-87
2021/09/10 00:46:52;;;;;;;;;;;;;;;15.22;80.64;99461.28;4956090;28;19933;-87
2021/09/10 00:49:19;;;;;;;;;;;;;;;15.19;80.48;99446.25;4973037;28;19960;-91
2021/09/10 00:51:45;;;;;;;;;;;;;;;15.16;80.62;99446.94;4955410;28;20364;-87
2021/09/10 00:54:12;;;;;;;;;;;;;;;15.16;80.64;99451.63;4956007;28;19933;-89
2021/09/10 00:56:38;;;;;;;;;;;;;;;15.15;80.55;99447.28;4955984;28;20395;-87
2021/09/10 00:59:05;;;;;;;;;;;;;;;15.12;80.84;99447.97;4955934;28;20443;-87
2021/09/10 01:01:31;;;;;;;;;;;;;;;15.11;80.86;99441.66;4939903;28;20308;-86
2021/09/10 01:03:57;;;;;;;;;;;;;;;15.08;80.91;99439.56;4955855;28;19926;-87
2021/09/10 01:06:23;;;;;;;;;;;;;;;15.12;80.72;99440.50;4973198;28;19930;-87
2021/09/10 01:08:51;;;;;;;;;;;;;;;15.14;80.85;99453.94;4955915;28;19932;-87
2021/09/10 01:11:17;;;;;;;;;;;;;;;15.18;80.87;99441.91;4939826;28;20315;-88
2021/09/10 01:13:45;;;;;;;;;;;;;;;15.26;80.54;99445.69;4972650;28;19930;-86
2021/09/10 01:16:11;;;;;;;;;;;;;;;15.30;80.30;99437.53;4972960;28;19962;-87
2021/09/10 01:18:37;;;;;;;;;;;;;;;15.34;80.05;99436.53;4955893;28;19926;-88
2021/09/10 01:21:03;;;;;;;;;;;;;;;15.36;80.00;99439.75;4973022;28;19937;-87
2021/09/10 01:23:30;;;;;;;;;;;;;;;15.39;79.79;99435.50;4939372;28;20399;-87
2021/09/10 01:25:56;;;;;;;;;;;;;;;15.45;79.62;99442.41;4972682;28;19932;-86
2021/09/10 01:28:22;;;;;;;;;;;;;;;15.46;79.61;99441.25;4972866;28;19973;-87
2021/09/10 01:30:48;;;;;;;;;;;;;;;15.45;79.43;99434.13;4972883;28;19925;-89
2021/09/10 01:33:14;;;;;;;;;;;;;;;15.47;79.47;99434.59;4972440;28;19926;-86
2021/09/10 01:35:40;;;;;;;;;;;;;;;15.47;79.42;99423.59;4955543;28;20304;-87
2021/09/10 01:38:07;;;;;;;;;;;;;;;15.41;79.57;99427.72;4955406;28;19933;-87
2021/09/10 01:40:34;;;;;;;;;;;;;;;15.44;79.62;99427.03;4955627;28;19930;-86
2021/09/10 01:43:00;;;;;;;;;;;;;;;15.49;79.40;99416.56;4955252;28;20396;-87
2021/09/10 01:45:26;;;;;;;;;;;;;;;15.51;79.28;99430.00;4939321;28;19926;-87
2021/09/10 01:47:51;;;;;;;;;;;;;;;15.56;79.16;99440.78;4955500;28;19926;-87
2021/09/10 01:50:18;;;;;;;;;;;;;;;15.54;79.17;99429.34;4972615;28;20060;-87
2021/09/10 01:52:44;;;;;;;;;;;;;;;15.56;79.19;99435.28;4972506;28;20346;-87
2021/09/10 01:55:12;;;;;;;;;;;;;;;15.56;78.97;99427.03;4955456;28;19997;-85
2021/09/10 01:57:42;;;;;;;;;;;;;;;15.55;79.03;99433.69;4959340;28;20020;-87
2021/09/10 02:00:07;;;;;;;;;;;;;;;15.58;78.93;99433.00;4976258;28;20037;-87
2021/09/10 02:02:34;;;;;;;;;;;;;;;15.61;78.86;99429.56;4959024;28;20025;-87
2021/09/10 02:05:00;;;;;;;;;;;;;;;15.60;78.65;99433.47;4958451;28;20020;-87
2021/09/10 02:07:27;;;;;;;;;;;;;;;15.56;78.67;99427.03;4976009;28;20572;-86
2021/09/10 02:09:52;;;;;;;;;;;;;;;15.51;78.75;99430.00;4976209;28;19926;-88
2021/09/10 02:12:18;;;;;;;;;;;;;;;15.47;78.90;99423.59;4958814;28;19958;-87
2021/09/10 02:14:44;;;;;;;;;;;;;;;15.43;79.04;99417.97;4958485;28;19926;-87
2021/09/10 02:17:10;;;;;;;;;;;;;;;15.41;78.99;99422.19;4975729;28;19998;-86
2021/09/10 02:19:36;;;;;;;;;;;;;;;15.45;78.93;99420.38;4975777;28;19965;-86
2021/09/10 02:22:05;;;;;;;;;;;;;;;15.48;78.79;99414.16;4975799;28;20477;-87
2021/09/10 02:24:31;;;;;;;;;;;;;;;15.45;78.85;99415.66;4975533;28;19929;-86
2021/09/10 02:26:58;;;;;;;;;;;;;;;15.46;78.71;99419.19;4942681;28;20347;-87
2021/09/10 02:29:24;;;;;;;;;;;;;;;15.49;78.77;99422.06;4958408;28;19930;-87
2021/09/10 02:31:50;;;;;;;;;;;;;;;15.47;78.79;99423.59;4975603;28;19949;-87
2021/09/10 02:34:15;;;;;;;;;;;;;;;15.44;78.92;99422.31;4975305;28;19926;-86
2021/09/10 02:36:43;;;;;;;;;;;;;;;15.47;78.82;99418.09;4975530;28;20431;-87
2021/09/10 02:39:11;;;;;;;;;;;;;;;15.48;78.53;99412.22;4975404;28;20016;-87
2021/09/10 02:41:37;;;;;;;;;;;;;;;15.51;78.66;99413.47;4942170;28;19933;-87
2021/09/10 02:44:04;;;;;;;;;;;;;;;15.50;78.57;99412.69;4975034;28;20393;-86
2021/09/10 02:46:31;;;;;;;;;;;;;;;15.47;78.79;99420.84;4974622;28;19933;-86
2021/09/10 02:48:57;;;;;;;;;;;;;;;15.48;78.68;99422.44;4974897;28;20364;-88
2021/09/10 02:51:23;;;;;;;;;;;;;;;15.44;78.90;99427.03;4975175;28;19977;-87
2021/09/10 02:53:49;;;;;;;;;;;;;;;15.43;79.02;99420.72;4957921;28;19930;-86
2021/09/10 02:56:16;;;;;;;;;;;;;;;15.44;78.96;99424.28;4974036;28;20399;-88
2021/09/10 02:58:43;;;;;;;;;;;;;;;15.44;78.95;99422.31;4957870;28;20442;-88
2021/09/10 03:01:10;;;;;;;;;;;;;;;15.46;78.93;99420.03;4957537;28;19926;-87
2021/09/10 03:03:36;;;;;;;;;;;;;;;15.48;79.01;99422.44;4975043;28;19928;-87
2021/09/10 03:06:04;;;;;;;;;;;;;;;15.51;78.86;99424.50;4957552;28;19933;-87
2021/09/10 03:08:29;;;;;;;;;;;;;;;15.52;78.83;99428.84;4957695;28;19933;-87
2021/09/10 03:10:55;;;;;;;;;;;;;;;15.51;78.83;99430.81;4957375;28;19929;-87
2021/09/10 03:13:21;;;;;;;;;;;;;;;15.51;78.90;99436.31;4974649;28;19981;-90
2021/09/10 03:15:48;;;;;;;;;;;;;;;15.56;78.72;99432.53;4974880;28;20424;-87
2021/09/10 03:18:13;;;;;;;;;;;;;;;15.57;78.76;99434.16;4974725;28;19930;-87
2021/09/10 03:20:40;;;;;;;;;;;;;;;15.63;78.63;99437.47;4974530;28;19925;-89
2021/09/10 03:23:06;;;;;;;;;;;;;;;15.66;78.46;99432.13;4974721;28;19930;-87
2021/09/10 03:25:32;;;;;;;;;;;;;;;15.70;78.48;99443.28;4974712;28;19926;-88
2021/09/10 03:28:01;;;;;;;;;;;;;;;15.72;78.29;99436.25;4974631;28;20006;-87
2021/09/10 03:30:29;;;;;;;;;;;;;;;15.79;78.13;99430.16;4974161;28;19933;-90
2021/09/10 03:32:54;;;;;;;;;;;;;;;15.80;78.12;99437.28;4974479;28;20596;-87
2021/09/10 03:35:20;;;;;;;;;;;;;;;15.82;78.09;99434.97;4974817;28;20008;-87
2021/09/10 03:37:47;;;;;;;;;;;;;;;15.81;78.05;99444.41;4974365;28;20405;-86
2021/09/10 03:40:14;;;;;;;;;;;;;;;15.81;78.04;99440.84;4956734;28;20017;-86
2021/09/10 03:42:39;;;;;;;;;;;;;;;15.86;78.04;99446.94;4974254;28;20028;-87
2021/09/10 03:45:09;;;;;;;;;;;;;;;15.86;77.87;99446.94;4956996;28;20043;-86
2021/09/10 03:47:35;;;;;;;;;;;;;;;15.88;77.89;99455.66;4974295;28;19981;-87
2021/09/10 03:50:01;;;;;;;;;;;;;;;15.88;77.97;99450.16;4973556;28;19933;-85
2021/09/10 03:52:27;;;;;;;;;;;;;;;15.86;78.11;99451.63;4973944;28;19930;-87
2021/09/10 03:54:53;;;;;;;;;;;;;;;15.88;78.16;99457.63;4956886;28;19926;-87
2021/09/10 03:57:18;;;;;;;;;;;;;;;15.94;77.89;99453.47;4956860;28;19984;-87
2021/09/10 03:59:44;;;;;;;;;;;;;;;15.98;77.93;99451.63;4956465;28;19933;-87
2021/09/10 04:02:12;;;;;;;;;;;;;;;16.02;77.84;99455.31;4973756;28;19950;-88
2021/09/10 04:04:40;;;;;;;;;;;;;;;16.01;77.69;99444.63;4972025;28;20202;-85
2021/09/10 04:07:06;;;;;;;;;;;;;;;16.14;77.68;99460.81;4974567;28;19926;-92
2021/09/10 04:09:35;;;;;;;;;;;;;;;16.20;77.56;99462.19;4973719;28;20445;-85
2021/09/10 04:12:02;;;;;;;;;;;;;;;16.25;77.27;99452.06;4974304;28;19950;-95
2021/09/10 04:14:29;;;;;;;;;;;;;;;16.34;76.99;99456.31;4958352;28;19930;-94
2021/09/10 04:16:56;;;;;;;;;;;;;;;16.38;76.87;99459.16;4941593;28;20021;-86
2021/09/10 04:19:22;;;;;;;;;;;;;;;16.41;76.74;99458.47;4974451;28;19933;-86
2021/09/10 04:21:48;;;;;;;;;;;;;;;16.47;76.61;99448.81;4974737;28;19926;-86
2021/09/10 04:24:17;;;;;;;;;;;;;;;16.45;76.60;99457.41;4942162;28;19960;-87
2021/09/10 04:26:44;;;;;;;;;;;;;;;16.54;76.64;99462.00;4975029;28;19933;-94
2021/09/10 04:29:10;;;;;;;;;;;;;;;16.66;76.44;99462.78;4975038;28;20028;-91
2021/09/10 04:31:35;;;;;;;;;;;;;;;16.73;75.84;99461.38;4958888;28;20363;-94
2021/09/10 04:34:01;;;;;;;;;;;;;;;16.86;75.52;99466.53;4958048;28;19949;-93
2021/09/10 04:36:27;;;;;;;;;;;;;;;16.96;74.81;99464.44;4958686;28;20403;-91
2021/09/10 04:38:53;;;;;;;;;;;;;;;17.06;75.06;99467.47;4939971;28;19933;-88
2021/09/10 04:41:19;;;;;;;;;;;;;;;17.23;74.41;99473.84;4973827;28;20399;-86
2021/09/10 04:43:44;;;;;;;;;;;;;;;17.36;74.04;99469.84;4973167;28;19926;-90
2021/09/10 04:46:10;;;;;;;;;;;;;;;17.49;73.28;99471.38;4973474;28;20358;-91
2021/09/10 04:48:37;;;;;;;;;;;;;;;17.62;72.57;99477.66;4973385;28;19980;-85
2021/09/10 04:51:02;;;;;;;;;;;;;;;17.59;72.72;99481.91;4974211;28;20388;-91
2021/09/10 04:53:28;;;;;;;;;;;;;;;17.56;72.62;99481.81;4949416;28;19950;-88
2021/09/10 04:55:54;;;;;;;;;;;;;;;17.53;72.59;99477.81;4968566;28;19935;-88
2021/09/10 04:58:23;;;;;;;;;;;;;;;17.51;72.61;99479.31;4962075;28;19933;-91
2021/09/10 05:00:49;;;;;;;;;;;;;;;17.51;72.50;99482.88;4960352;28;19960;-84
2021/09/10 05:03:15;;;;;;;;;;;;;;;17.61;72.84;99484.31;4957947;28;19996;-85
2021/09/10 05:05:41;;;;;;;;;;;;;;;17.60;72.50;99480.75;4961629;28;20434;-89
2021/09/10 05:08:07;;;;;;;;;;;;;;;17.68;72.30;99486.44;4960863;28;19930;-89
2021/09/10 05:10:33;;;;;;;;;;;;;;;17.70;72.23;99484.94;4960787;28;20025;-91
2021/09/10 05:12:59;;;;;;;;;;;;;;;17.72;71.97;99488.16;4957519;28;19926;-93
2021/09/10 05:15:24;;;;;;;;;;;;;;;17.76;71.88;99482.72;4957739;28;19933;-86
2021/09/10 05:17:50;;;;;;;;;;;;;;;17.76;72.26;99483.56;4957392;28;19926;-87
2021/09/10 05:20:16;;;;;;;;;;;;;;;17.79;71.62;99484.81;4960466;28;19926;-86
2021/09/10 05:22:44;;;;;;;;;;;;;;;17.79;71.94;99480.06;4957714;28;20159;-87
2021/09/10 05:25:10;;;;;;;;;;;;;;;17.82;71.78;99486.84;4961588;28;20430;-92
2021/09/10 05:27:35;;;;;;;;;;;;;;;17.91;71.71;99481.94;4947587;28;19955;-88
2021/09/10 05:30:01;;;;;;;;;;;;;;;17.98;71.51;99482.13;4953330;28;19926;-94
2021/09/10 05:32:28;;;;;;;;;;;;;;;17.99;71.18;99485.69;4959785;28;20004;-90
2021/09/10 05:34:54;;;;;;;;;;;;;;;18.07;70.99;99474.41;4959511;28;20513;-90
2021/09/10 05:37:21;;;;;;;;;;;;;;;18.08;71.02;99489.88;4975628;28;19933;-93
2021/09/10 05:39:47;;;;;;;;;;;;;;;18.08;71.07;99486.31;4938946;28;19926;-89
2021/09/10 05:42:14;;;;;;;;;;;;;;;18.11;70.93;99480.03;4940805;28;19930;-90
2021/09/10 05:44:39;;;;;;;;;;;;;;;18.05;71.13;99484.25;4971826;28;19949;-94
2021/09/10 05:47:06;;;;;;;;;;;;;;;18.06;70.86;99486.66;4951099;28;19926;-91
2021/09/10 05:49:33;;;;;;;;;;;;;;;18.12;71.01;99481.66;4948533;29;19934;-89
2021/09/10 05:52:02;;;;;;;;;;;;;;;18.20;70.22;99488.16;4951370;29;19934;-89
2021/09/10 05:54:29;;;;;;;;;;;;;;;18.27;70.70;99489.09;4951815;29;19926;-89
2021/09/10 05:56:55;;;;;;;;;;;;;;;18.30;70.50;99485.63;4946935;29;19934;-90
2021/09/10 05:59:20;;;;;;;;;;;;;;;18.31;70.41;99492.78;4923012;29;19927;-90
2021/09/10 06:01:47;;;;;;;;;;;;;;;18.41;69.95;99493.38;4948619;28;19926;-89
2021/09/10 06:04:13;;;;;;;;;;;;;;;18.39;69.91;99492.94;4945821;29;20013;-93
2021/09/10 06:06:38;;;;;;;;;;;;;;;18.45;69.52;99485.97;4945512;29;19927;-89
2021/09/10 06:09:04;;;;;;;;;;;;;;;18.57;69.47;99498.84;4941443;29;19931;-90
2021/09/10 06:11:30;;;;;;;;;;;;;;;18.63;69.02;99492.69;4949391;29;20332;-91
2021/09/10 06:13:56;;;;;;;;;;;;;;;18.67;68.90;99496.31;4951938;29;20328;-93
2021/09/10 06:16:22;;;;;;;;;;;;;;;18.73;68.35;99488.56;4932664;29;19926;-92
2021/09/10 06:18:48;;;;;;;;;;;;;;;18.83;68.15;99496.28;4949302;28;19950;-93
2021/09/10 06:21:14;;;;;;;;;;;;;;;18.85;68.37;99496.75;4934435;29;20395;-89
2021/09/10 06:23:40;;;;;;;;;;;;;;;18.90;67.84;99488.13;4939669;29;20311;-91
2021/09/10 06:26:06;;;;;;;;;;;;;;;18.87;67.93;99491.63;4924231;29;19929;-92
2021/09/10 06:28:32;;;;;;;;;;;;;;;18.91;67.41;99489.75;4939948;29;19926;-90
2021/09/10 06:31:00;;;;;;;;;;;;;;;18.95;66.93;99487.06;4925731;29;19922;-93
2021/09/10 06:33:26;;;;;;;;;;;;;;;18.93;67.39;99487.41;4940267;29;20012;-91
2021/09/10 06:35:52;;;;;;;;;;;;;;;18.84;66.76;99491.56;4957332;29;20016;-91
2021/09/10 06:38:18;;;;;;;;;;;;;;;18.84;67.03;99495.16;4924169;29;19927;-90
2021/09/10 06:40:46;;;;;;;;;;;;;;;18.84;66.68;99503.47;4954178;29;19926;-84
2021/09/10 06:43:12;;;;;;;;;;;;;;;18.78;66.78;99500.16;4943099;28;19933;-90
2021/09/10 06:45:38;;;;;;;;;;;;;;;18.69;66.41;99494.00;4923931;29;19927;-86
2021/09/10 06:48:04;;;;;;;;;;;;;;;18.69;66.55;99495.97;4938049;29;19934;-93
2021/09/10 06:50:30;;;;;;;;;;;;;;;18.69;66.29;99505.06;4938732;29;20328;-92
2021/09/10 06:52:56;;;;;;;;;;;;;;;18.71;66.76;99497.22;4967549;28;19930;-92
2021/09/10 06:55:22;;;;;;;;;;;;;;;18.77;66.38;99501.34;4939022;29;20376;-91
2021/09/10 06:57:47;;;;;;;;;;;;;;;18.91;66.06;99500.03;4927228;29;20014;-90
2021/09/10 07:00:15;;;;;;;;;;;;;;;19.08;65.70;99496.00;4942742;29;19930;-92
2021/09/10 07:02:41;;;;;;;;;;;;;;;19.20;64.32;99504.16;4951334;29;19930;-92
2021/09/10 07:05:07;;;;;;;;;;;;;;;19.32;65.05;99504.00;4908544;29;19922;-92
2021/09/10 07:07:33;;;;;;;;;;;;;;;19.49;63.88;99520.16;4939782;29;19998;-91
2021/09/10 07:10:00;;;;;;;;;;;;;;;19.59;63.31;99517.97;4947604;29;19926;-90
2021/09/10 07:12:27;;;;;;;;;;;;;;;19.70;62.53;99527.28;4964130;28;19977;-92
2021/09/10 07:14:53;;;;;;;;;;;;;;;19.65;62.55;99527.59;4936575;29;19927;-91
2021/09/10 07:17:20;;;;;;;;;;;;;;;19.65;62.63;99533.16;4952064;29;19995;-94
2021/09/10 07:19:48;;;;;;;;;;;;;;;19.65;62.87;99533.16;4910873;29;20400;-95
2021/09/10 07:22:14;;;;;;;;;;;;;;;19.71;63.10;99526.13;4950638;28;19930;-93
2021/09/10 07:24:40;;;;;;;;;;;;;;;19.78;63.15;99526.25;4965778;28;19922;-94
2021/09/10 07:27:06;;;;;;;;;;;;;;;19.78;62.95;99520.72;4950846;29;19933;-93
2021/09/10 07:29:33;;;;;;;;;;;;;;;19.83;62.75;99531.47;4952322;28;20020;-93
2021/09/10 07:31:59;;;;;;;;;;;;;;;19.89;62.75;99540.31;4929454;29;20017;-92
2021/09/10 07:34:24;;;;;;;;;;;;;;;20.00;62.20;99543.25;4949443;29;20020;-91
2021/09/10 07:36:52;;;;;;;;;;;;;;;20.04;61.84;99547.72;4943554;29;20021;-91
2021/09/10 07:39:19;;;;;;;;;;;;;;;19.91;61.66;99549.06;4932139;29;19965;-94
2021/09/10 07:41:45;;;;;;;;;;;;;;;19.85;61.40;99543.03;4930819;29;20025;-92
2021/09/10 07:44:14;;;;;;;;;;;;;;;19.88;61.71;99542.28;4946031;29;19926;-92
2021/09/10 07:46:44;;;;;;;;;;;;;;;19.90;62.32;99542.72;4941685;29;19973;-91
2021/09/10 07:49:10;;;;;;;;;;;;;;;19.97;63.19;99546.78;4957445;28;20293;-91
2021/09/10 07:51:36;;;;;;;;;;;;;;;20.13;62.70;99541.91;4969891;28;19950;-92
2021/09/10 07:54:03;;;;;;;;;;;;;;;20.12;61.77;99546.66;4925920;29;19962;-92
2021/09/10 07:56:29;;;;;;;;;;;;;;;20.18;62.31;99545.16;4930093;29;19930;-89
2021/09/10 07:58:58;;;;;;;;;;;;;;;20.23;62.51;99541.28;4948691;28;20364;-90
2021/09/10 08:01:24;;;;;;;;;;;;;;;20.30;63.02;99544.19;4944479;29;19930;-93
2021/09/10 08:03:51;;;;;;;;;;;;;;;20.38;62.11;99548.66;4919033;29;19993;-90
2021/09/10 08:06:20;;;;;;;;;;;;;;;20.35;62.00;99554.16;4946382;29;19927;-91
2021/09/10 08:08:46;;;;;;;;;;;;;;;20.36;61.49;99550.19;4921108;29;19926;-91
2021/09/10 08:11:12;;;;;;;;;;;;;;;20.48;61.93;99554.75;4929711;29;19926;-92
2021/09/10 08:13:39;;;;;;;;;;;;;;;20.54;61.90;99556.06;4937274;29;20709;-93
2021/09/10 08:16:04;;;;;;;;;;;;;;;20.39;60.73;99552.22;4938118;29;20471;-90
2021/09/10 08:18:30;;;;;;;;;;;;;;;20.30;60.49;99552.50;4940471;29;20388;-89
2021/09/10 08:20:57;;;;;;;;;;;;;;;20.30;60.21;99546.94;4945105;29;20034;-91
2021/09/10 08:23:24;;;;;;;;;;;;;;;20.50;61.78;99566.28;4929795;29;20021;-91
2021/09/10 08:25:50;;;;;;;;;;;;;;;20.57;61.36;99561.66;4952593;29;20312;-92
2021/09/10 08:28:17;;;;;;;;;;;;;;;20.68;61.03;99563.78;4937576;29;19926;-91
2021/09/10 08:30:45;;;;;;;;;;;;;;;20.79;61.49;99567.53;4937707;29;20384;-91
2021/09/10 08:33:12;;;;;;;;;;;;;;;20.74;61.25;99571.44;4954684;28;19933;-91
2021/09/10 08:35:39;;;;;;;;;;;;;;;20.54;60.19;99567.97;4969979;28;19927;-92
2021/09/10 08:38:05;;;;;;;;;;;;;;;20.47;61.16;99564.25;4953694;29;19926;-91
2021/09/10 08:40:33;;;;;;;;;;;;;;;20.45;60.85;99567.41;4937558;29;19933;-92
2021/09/10 08:43:02;;;;;;;;;;;;;;;20.35;61.45;99568.03;4953694;29;20066;-90
2021/09/10 08:45:28;;;;;;;;;;;;;;;20.38;62.35;99575.63;4953164;29;19930;-92
2021/09/10 08:47:55;;;;;;;;;;;;;;;20.45;61.70;99577.72;4953599;29;19931;-91
2021/09/10 08:50:21;;;;;;;;;;;;;;;20.53;62.55;99571.94;4972097;28;19926;-94
2021/09/10 08:52:47;;;;;;;;;;;;;;;20.52;61.87;99575.06;4925576;28;19933;-93
2021/09/10 08:55:16;;;;;;;;;;;;;;;20.57;62.10;99575.56;4926184;28;19925;-93
2021/09/10 08:57:48;;;;;;;;;;;;;;;20.51;61.68;99574.25;4941955;28;19926;-94
2021/09/10 09:00:15;;;;;;;;;;;;;;;20.69;61.53;99577.31;4941641;28;19937;-93
2021/09/10 09:02:41;;;;;;;;;;;;;;;20.65;60.92;99582.81;4941843;28;19953;-94
2021/09/10 09:05:07;;;;;;;;;;;;;;;20.75;61.50;99573.03;4928184;28;20308;-94
2021/09/10 09:07:33;;;;;;;;;;;;;;;20.84;60.46;99578.31;4937631;29;19932;-90
2021/09/10 09:10:01;;;;;;;;;;;;;;;20.92;60.89;99577.22;4940547;28;20404;-92
2021/09/10 09:12:30;;;;;;;;;;;;;;;20.99;60.97;99580.13;4931930;28;19937;-93
2021/09/10 09:15:01;;;;;;;;;;;;;;;21.13;60.46;99581.50;4935496;29;19933;-94
2021/09/10 09:17:39;;;;;;;;;;;;;;;21.10;59.94;99571.91;4956707;28;19930;-93
2021/09/10 09:20:25;;;;;;;;;;;;;;;21.13;59.47;99571.16;4943512;28;19930;-95
2021/09/10 09:22:53;;;;;;;;;;;;;;;21.18;59.35;99567.25;4938308;28;20414;-93
2021/09/10 09:25:21;;;;;;;;;;;;;;;21.21;59.22;99572.84;4923552;28;19957;-94
2021/09/10 09:27:48;;;;;;;;;;;;;;;21.33;58.05;99574.59;4935898;28;19926;-93
2021/09/10 09:30:33;;;;;;;;;;;;;;;21.36;59.08;99579.44;4921061;29;19931;-94
2021/09/10 09:32:59;;;;;;;;;;;;;;;21.35;59.41;99578.59;4936290;28;19925;-92
2021/09/10 09:35:29;;;;;;;;;;;;;;;21.13;58.18;99573.16;4922604;28;20497;-92
2021/09/10 09:37:55;;;;;;;;;;;;;;;20.96;57.98;99578.09;4938672;28;20362;-93
2021/09/10 09:40:30;;;;;;;;;;;;;;;20.98;58.25;99580.50;4957351;28;19933;-94
2021/09/10 09:42:56;;;;;;;;;;;;;;;21.03;58.92;99589.31;4944460;28;19949;-87
2021/09/10 09:45:25;;;;;;;;;;;;;;;21.09;58.78;99584.19;4961361;28;20387;-90
2021/09/10 09:47:51;;;;;;;;;;;;;;;21.19;57.99;99586.34;4962451;28;19926;-89
2021/09/10 09:50:18;;;;;;;;;;;;;;;21.27;57.01;99581.66;4958745;29;20388;-90
2021/09/10 09:52:49;;;;;;;;;;;;;;;21.24;57.42;99587.97;4943022;29;19930;-90
2021/09/10 09:55:17;;;;;;;;;;;;;;;21.33;57.95;99589.28;4974496;28;19926;-89
2021/09/10 09:57:43;;;;;;;;;;;;;;;21.48;57.93;99593.06;4959047;28;19922;-87
2021/09/10 10:00:11;;;;;;;;;;;;;;;21.53;57.24;99595.50;4943251;29;19926;-91
2021/09/10 10:02:37;;;;;;;;;;;;;;;21.22;55.69;99588.34;4943265;28;20024;-88
2021/09/10 10:05:04;;;;;;;;;;;;;;;21.10;55.69;99599.72;4942688;28;20395;-90
2021/09/10 10:07:49;;;;;;;;;;;;;;;21.12;56.75;99600.13;4958684;28;19941;-92
2021/09/10 10:10:18;;;;;;;;;;;;;;;21.15;55.73;99595.81;4958653;29;19933;-87
2021/09/10 10:12:46;;;;;;;;;;;;;;;21.20;56.67;99606.59;4942783;29;19931;-91
2021/09/10 10:15:24;;;;;;;;;;;;;;;21.27;57.53;99598.34;4959068;28;19927;-89
2021/09/10 10:17:51;;;;;;;;;;;;;;;21.45;57.01;99599.38;4954716;28;19934;-88
2021/09/10 10:20:36;;;;;;;;;;;;;;;21.42;58.50;99589.00;4955338;29;20021;-88
2021/09/10 10:23:02;;;;;;;;;;;;;;;21.48;56.03;99603.38;4956425;29;19953;-88
2021/09/10 10:25:29;;;;;;;;;;;;;;;21.39;57.68;99602.88;4954736;29;19927;-87
2021/09/10 10:27:59;;;;;;;;;;;;;;;21.23;56.79;99603.06;4954855;29;20391;-87
2021/09/10 10:30:25;;;;;;;;;;;;;;;21.13;57.92;99612.88;4956234;28;19968;-85
2021/09/10 10:32:52;;;;;;;;;;;;;;;21.07;57.92;99617.16;4956074;28;20402;-87
2021/09/10 10:35:18;;;;;;;;;;;;;;;21.05;58.42;99602.81;4954950;29;19932;-87
2021/09/10 10:37:48;;;;;;;;;;;;;;;21.02;57.87;99603.56;4954401;29;19922;-86
2021/09/10 10:40:37;;;;;;;;;;;;;;;21.11;57.20;99604.09;4954837;29;19926;-86
2021/09/10 10:43:08;;;;;;;;;;;;;;;21.22;57.51;99595.88;4947643;28;19922;-87
2021/09/10 10:45:46;;;;;;;;;;;;;;;21.38;57.23;99590.94;4956051;28;20315;-86
2021/09/10 10:48:34;;;;;;;;;;;;;;;21.60;55.22;99589.22;4954561;28;19970;-89
2021/09/10 10:51:02;;;;;;;;;;;;;;;21.70;56.59;99598.88;4957941;28;19981;-87
2021/09/10 10:53:28;;;;;;;;;;;;;;;21.88;55.02;99590.69;4975003;28;19945;-85
2021/09/10 10:55:54;;;;;;;;;;;;;;;21.97;54.57;99596.75;4975105;28;19930;-87
2021/09/10 10:58:22;;;;;;;;;;;;;;;22.10;53.69;99595.28;4974770;28;19921;-89
2021/09/10 11:00:51;;;;;;;;;;;;;;;22.14;53.55;99601.69;4957855;28;20020;-87
2021/09/10 11:03:17;;;;;;;;;;;;;;;22.14;53.73;99596.13;4957851;28;19976;-87
2021/09/10 11:05:44;;;;;;;;;;;;;;;22.15;52.26;99595.00;4957851;28;19926;-89
2021/09/10 11:08:10;;;;;;;;;;;;;;;22.08;53.38;99606.00;4957498;28;19933;-87
2021/09/10 11:10:37;;;;;;;;;;;;;;;22.05;52.90;99606.78;4957406;28;19922;-84
2021/09/10 11:13:03;;;;;;;;;;;;;;;22.13;52.10;99605.66;4978648;28;19930;-89
2021/09/10 11:15:32;;;;;;;;;;;;;;;22.07;52.15;99607.19;4975005;28;19926;-87
2021/09/10 11:17:59;;;;;;;;;;;;;;;21.97;51.76;99613.47;4957263;28;19926;-90
2021/09/10 11:20:28;;;;;;;;;;;;;;;21.94;52.94;99606.66;4958142;28;19926;-91
2021/09/10 11:22:54;;;;;;;;;;;;;;;21.84;52.21;99607.38;4925883;28;20296;-89
2021/09/10 11:25:20;;;;;;;;;;;;;;;21.81;53.22;99603.34;4941620;28;19926;-89
2021/09/10 11:27:46;;;;;;;;;;;;;;;21.84;53.80;99603.78;4956342;28;20307;-87
2021/09/10 11:30:13;;;;;;;;;;;;;;;21.94;53.04;99614.22;4974118;28;20407;-89
2021/09/10 11:32:40;;;;;;;;;;;;;;;21.83;53.53;99613.31;4957140;28;19966;-88
2021/09/10 11:35:16;;;;;;;;;;;;;;;21.87;53.74;99619.72;4955445;28;19926;-87
2021/09/10 11:37:49;;;;;;;;;;;;;;;22.00;54.22;99613.50;4957811;28;20392;-86
2021/09/10 11:40:26;;;;;;;;;;;;;;;22.04;53.09;99616.31;4950185;28;20387;-94
2021/09/10 11:43:01;;;;;;;;;;;;;;;22.11;53.23;99619.16;4958103;28;19972;-88
2021/09/10 11:45:30;;;;;;;;;;;;;;;22.15;53.24;99614.47;4974790;28;19933;-87
2021/09/10 11:47:57;;;;;;;;;;;;;;;22.17;52.26;99623.22;4975049;28;20288;-87
2021/09/10 11:50:24;;;;;;;;;;;;;;;22.11;53.79;99621.94;4974379;28;19933;-87
2021/09/10 11:52:51;;;;;;;;;;;;;;;22.12;53.97;99625.53;4957472;28;20351;-90
2021/09/10 11:55:18;;;;;;;;;;;;;;;22.01;53.81;99615.09;4945937;29;19933;-94
2021/09/10 11:57:45;;;;;;;;;;;;;;;21.94;53.84;99617.81;4946067;28;19926;-87
2021/09/10 12:00:26;;;;;;;;;;;;;;;21.88;54.18;99615.75;4957024;28;19925;-89
2021/09/10 12:02:53;;;;;;;;;;;;;;;21.87;53.86;99619.72;4972304;28;19926;-88
2021/09/10 12:05:19;;;;;;;;;;;;;;;22.23;55.45;99618.13;4956931;28;19943;-92
2021/09/10 12:07:49;;;;;;;;;;;;;;;22.59;54.04;99618.41;4949033;28;20025;-95
2021/09/10 12:10:31;;;;;;;;;;;;;;;22.55;53.54;99621.19;4957158;28;19970;-88
2021/09/10 12:13:11;;;;;;;;;;;;;;;22.46;52.16;99629.84;4951947;28;20038;-90
2021/09/10 12:15:38;;;;;;;;;;;;;;;22.45;52.70;99625.47;4953696;28;19926;-90
2021/09/10 12:18:11;;;;;;;;;;;;;;;22.28;53.44;99623.31;4954921;28;20009;-96
2021/09/10 12:20:37;;;;;;;;;;;;;;;22.17;54.03;99620.44;4952791;28;19958;-85
2021/09/10 12:23:04;;;;;;;;;;;;;;;21.95;53.90;99619.44;4965562;28;19938;-84
2021/09/10 12:25:45;;;;;;;;;;;;;;;21.81;54.77;99625.63;4966146;28;19933;-86
2021/09/10 12:28:16;;;;;;;;;;;;;;;21.76;55.96;99619.63;4950153;28;19981;-85
2021/09/10 12:30:46;;;;;;;;;;;;;;;21.76;54.82;99625.97;4972166;28;19926;-88
2021/09/10 12:33:20;;;;;;;;;;;;;;;21.57;56.08;99615.03;4953389;28;19930;-88
2021/09/10 12:35:49;;;;;;;;;;;;;;;21.58;56.40;99611.84;4957453;28;20020;-84
2021/09/10 12:38:22;;;;;;;;;;;;;;;21.50;55.77;99617.72;4938582;28;20343;-95
2021/09/10 12:40:49;;;;;;;;;;;;;;;21.44;56.83;99620.03;4936708;28;19930;-83
2021/09/10 12:43:17;;;;;;;;;;;;;;;21.35;56.05;99623.09;4965474;28;19926;-84
2021/09/10 12:45:45;;;;;;;;;;;;;;;21.38;56.68;99615.19;4964051;28;19930;-83
2021/09/10 12:48:13;;;;;;;;;;;;;;;21.55;56.46;99620.94;4966952;28;19926;-83